Time;durP1;ratioP1;P1;durP2;ratioP2;P2;SDS_P1;SDS_P2;PMS_P1;PMS_P2;Temp;Humidity;BMP_temperature;BMP_pressure;BME280_temperature;BME280_humidity;BME280_pressure;Samples;Min_cycle;Max_cycle;Signal;HPM_P1;HPM_P2
2022/03/27 00:00:15;;;;;;;23.80;16.20;;;;;;;6.30;74.26;97792.83;108086;1270;32118;-74
2022/03/27 00:03:07;;;;;;;22.80;15.60;;;;;;;6.30;74.37;97790.42;108039;1270;41083;-74
2022/03/27 00:05:38;;;;;;;21.20;15.70;;;;;;;6.32;74.38;97791.78;108102;1270;47853;-75
2022/03/27 00:08:10;;;;;;;21.70;16.00;;;;;;;6.33;74.36;97794.04;108035;1270;48065;-74
2022/03/27 00:13:29;;;;;;;20.10;16.40;;;;;;;6.39;74.30;97792.43;108043;1270;42419;-74
2022/03/27 00:16:00;;;;;;;21.40;16.80;;;;;;;6.40;74.39;97793.39;108126;1270;32347;-74
2022/03/27 00:18:29;;;;;;;;;;;;;;;6.35;74.26;97793.70;108045;1270;39154;-74
2022/03/27 00:21:00;;;;;;;20.50;16.00;;;;;;;6.33;74.35;97798.29;108032;1270;41393;-74
2022/03/27 00:23:29;;;;;;;;;;;;;;;6.31;74.43;97802.09;108083;1270;50470;-74
2022/03/27 00:26:00;;;;;;;21.20;15.80;;;;;;;6.30;74.38;97803.48;108100;1270;42745;-74
2022/03/27 00:28:33;;;;;;;23.50;16.50;;;;;;;6.31;74.33;97805.77;108025;1270;42299;-74
2022/03/27 00:31:05;;;;;;;21.30;15.80;;;;;;;6.35;74.26;97806.70;108109;1270;38166;-74
2022/03/27 00:33:36;;;;;;;18.10;14.70;;;;;;;6.33;73.86;97806.52;107762;1270;501964;-74
2022/03/27 00:36:10;;;;;;;16.10;13.10;;;;;;;6.30;74.10;97806.16;108033;1271;29546;-74
2022/03/27 00:38:41;;;;;;;16.90;12.10;;;;;;;6.23;73.06;97808.67;108101;1270;36177;-74
2022/03/27 00:41:12;;;;;;;16.70;12.40;;;;;;;6.15;72.34;97811.39;108088;1270;29534;-74
2022/03/27 00:43:44;;;;;;;17.70;12.60;;;;;;;6.12;72.42;97816.20;108076;1270;32334;-74
2022/03/27 00:46:15;;;;;;;18.20;12.20;;;;;;;6.09;72.29;97819.65;108142;1270;27836;-74
2022/03/27 00:48:46;;;;;;;14.60;10.50;;;;;;;6.06;71.87;97822.35;108114;1270;33404;-74
2022/03/27 00:51:17;;;;;;;13.00;8.40;;;;;;;6.02;70.81;97826.27;108130;1270;29992;-74
2022/03/27 00:53:48;;;;;;;17.50;10.40;;;;;;;5.93;70.10;97828.00;108073;1270;35181;-74
2022/03/27 00:56:19;;;;;;;15.50;9.30;;;;;;;5.90;69.95;97829.90;108078;1270;63865;-74
2022/03/27 00:58:50;;;;;;;15.50;10.70;;;;;;;5.86;69.81;97833.61;108031;1271;33993;-74
2022/03/27 01:01:24;;;;;;;18.00;11.40;;;;;;;5.80;69.86;97835.46;108097;1270;38263;-74
2022/03/27 01:03:57;;;;;;;15.50;10.60;;;;;;;5.80;70.22;97833.56;108092;1270;40174;-74
2022/03/27 01:06:32;;;;;;;15.10;10.90;;;;;;;5.77;69.95;97833.98;108095;1268;40169;-74
2022/03/27 01:11:55;;;;;;;17.30;11.30;;;;;;;5.68;70.04;97837.27;108054;1270;29204;-74
2022/03/27 01:14:31;;;;;;;16.40;11.10;;;;;;;5.66;70.05;97842.80;108064;1270;32737;-74
2022/03/27 01:17:08;;;;;;;14.50;10.20;;;;;;;5.61;70.06;97844.89;108048;1270;32995;-74
2022/03/27 01:19:43;;;;;;;15.30;10.00;;;;;;;5.60;70.22;97843.13;108100;1270;32756;-75
2022/03/27 01:22:14;;;;;;;19.40;11.50;;;;;;;5.56;70.33;97844.45;108068;1270;40241;-75
2022/03/27 01:24:46;;;;;;;18.50;11.50;;;;;;;5.51;70.49;97845.88;108071;1270;46294;-74
2022/03/27 01:27:17;;;;;;;17.90;12.90;;;;;;;5.48;70.63;97845.73;108113;1270;31089;-73
2022/03/27 01:29:48;;;;;;;15.70;11.30;;;;;;;5.44;70.73;97850.15;108083;1270;42999;-74
2022/03/27 01:32:19;;;;;;;17.90;12.80;;;;;;;5.45;71.06;97852.55;108110;1270;37445;-74
2022/03/27 01:34:50;;;;;;;18.10;12.20;;;;;;;5.39;70.89;97855.89;107938;1273;45407;-74
2022/03/27 01:37:19;;;;;;;;;;;;;;;5.27;70.79;97859.66;108048;1270;39112;-74
2022/03/27 01:39:50;;;;;;;17.20;11.10;;;;;;;5.13;70.56;97860.77;108087;1269;39824;-74
2022/03/27 01:42:21;;;;;;;15.80;10.40;;;;;;;4.95;70.43;97865.48;108089;1270;28303;-74
2022/03/27 01:44:52;;;;;;;14.80;9.00;;;;;;;4.80;69.87;97866.21;107897;1273;40136;-74
2022/03/27 01:47:23;;;;;;;12.60;8.30;;;;;;;4.59;69.33;97871.29;108122;1270;40828;-74
2022/03/27 01:49:54;;;;;;;12.40;7.20;;;;;;;4.44;68.93;97873.24;108093;1270;42126;-74
2022/03/27 01:52:25;;;;;;;15.10;7.70;;;;;;;4.30;68.68;97879.51;107960;1273;28155;-74
2022/03/27 01:54:57;;;;;;;11.70;7.30;;;;;;;4.15;68.53;97886.20;108071;1270;46040;-74
2022/03/27 01:57:27;;;;;;;13.30;7.10;;;;;;;4.03;68.43;97892.05;108098;1270;31742;-73
2022/03/27 01:59:58;;;;;;;12.90;7.40;;;;;;;3.98;68.47;97895.41;108050;1270;45562;-74
2022/03/27 02:02:29;;;;;;;11.10;7.00;;;;;;;3.92;68.40;97891.48;108034;1270;30653;-74
2022/03/27 02:05:01;;;;;;;15.00;7.80;;;;;;;3.80;68.08;97897.72;108043;1271;40173;-74
2022/03/27 02:07:39;;;;;;;20.30;10.30;;;;;;;3.72;68.12;97892.85;108094;1270;41509;-74
2022/03/27 02:10:11;;;;;;;12.60;8.10;;;;;;;3.68;68.18;97899.92;108138;1270;44447;-74
2022/03/27 02:12:42;;;;;;;17.60;9.70;;;;;;;3.65;68.05;97905.88;108027;1270;57958;-74
2022/03/27 02:15:14;;;;;;;18.80;9.70;;;;;;;3.57;68.08;97910.16;108048;1268;43171;-74
2022/03/27 02:17:44;;;;;;;14.80;9.20;;;;;;;3.49;67.93;97912.04;108075;1270;44149;-74
2022/03/27 02:20:16;;;;;;;14.00;7.80;;;;;;;3.43;67.73;97921.69;108066;1270;40187;-74
2022/03/27 02:22:47;;;;;;;15.10;8.40;;;;;;;3.29;67.56;97920.65;108117;1270;38064;-74
2022/03/27 02:25:18;;;;;;;15.20;7.60;;;;;;;3.21;67.55;97928.33;108114;1270;38896;-74
2022/03/27 02:27:49;;;;;;;14.90;7.00;;;;;;;3.17;67.36;97933.86;108074;1270;37214;-74
2022/03/27 02:30:20;;;;;;;10.30;5.70;;;;;;;3.09;67.16;97937.73;108094;1270;32381;-74
2022/03/27 02:32:51;;;;;;;11.20;5.70;;;;;;;2.99;66.80;97941.30;108091;1270;49212;-74
2022/03/27 02:35:22;;;;;;;9.60;5.00;;;;;;;2.95;66.90;97949.66;108107;1270;38723;-74
2022/03/27 02:37:53;;;;;;;9.00;4.90;;;;;;;3.00;66.76;97953.44;108073;1270;46174;-74
2022/03/27 02:40:23;;;;;;;9.10;4.50;;;;;;;3.01;66.55;97959.85;108087;1270;43108;-74
2022/03/27 02:42:54;;;;;;;8.80;4.40;;;;;;;2.99;66.10;97957.02;108073;1270;29543;-74
2022/03/27 02:45:26;;;;;;;10.60;4.80;;;;;;;2.79;65.62;97955.80;108010;1271;28926;-74
2022/03/27 02:47:57;;;;;;;8.10;4.20;;;;;;;2.68;65.51;97952.27;108073;1270;28334;-74
2022/03/27 02:50:30;;;;;;;12.80;3.90;;;;;;;2.67;65.75;97957.63;107900;1273;39742;-74
2022/03/27 02:53:02;;;;;;;7.90;4.10;;;;;;;2.65;65.35;97961.88;108028;1270;37288;-74
2022/03/27 02:55:33;;;;;;;9.10;4.00;;;;;;;2.61;65.11;97962.10;108061;1271;30163;-74
2022/03/27 02:58:05;;;;;;;8.30;3.80;;;;;;;2.51;64.99;97960.44;108127;1271;41994;-74
2022/03/27 03:00:36;;;;;;;7.30;3.80;;;;;;;2.43;65.00;97964.91;108183;1270;28095;-74
2022/03/27 03:03:08;;;;;;;10.00;3.70;;;;;;;2.52;65.10;97968.01;107982;1271;75159;-74
2022/03/27 03:05:40;;;;;;;9.00;4.10;;;;;;;2.46;64.86;97971.84;108110;1270;40826;-75
2022/03/27 03:08:12;;;;;;;8.30;4.00;;;;;;;2.28;64.67;97974.45;108034;1270;119928;-74
2022/03/27 03:10:44;;;;;;;6.60;3.50;;;;;;;2.10;64.64;97976.08;107979;1270;90811;-75
2022/03/27 03:13:15;;;;;;;8.20;4.00;;;;;;;1.91;64.80;97977.91;108048;1270;42864;-74
2022/03/27 03:15:46;;;;;;;9.30;3.70;;;;;;;1.84;65.42;97978.23;108052;1270;49954;-74
2022/03/27 03:18:18;;;;;;;8.50;3.80;;;;;;;1.84;65.55;97976.09;108050;1270;44161;-74
2022/03/27 03:20:49;;;;;;;6.20;3.70;;;;;;;1.72;65.59;97971.48;107984;1270;99393;-74
2022/03/27 03:23:20;;;;;;;8.60;3.90;;;;;;;1.54;66.08;97974.94;108051;1270;48845;-74
2022/03/27 03:25:50;;;;;;;6.90;3.40;;;;;;;1.41;66.49;97975.10;108047;1271;42308;-74
2022/03/27 03:28:21;;;;;;;8.60;4.10;;;;;;;1.32;67.11;97974.17;108049;1270;62111;-74
2022/03/27 03:30:52;;;;;;;5.50;3.10;;;;;;;1.28;67.34;97973.47;108059;1270;48138;-74
2022/03/27 03:33:23;;;;;;;5.50;3.50;;;;;;;1.23;67.33;97971.33;108044;1270;60973;-74
2022/03/27 03:35:55;;;;;;;7.70;3.60;;;;;;;1.26;67.44;97977.64;108054;1270;101796;-74
2022/03/27 03:38:25;;;;;;;6.90;3.50;;;;;;;1.25;67.44;97979.98;108133;1271;38455;-74
2022/03/27 03:40:56;;;;;;;7.20;3.00;;;;;;;1.13;67.36;97982.80;108042;1271;111394;-74
2022/03/27 03:43:27;;;;;;;5.50;3.20;;;;;;;0.95;67.23;97980.86;108085;1270;45911;-74
2022/03/27 03:45:58;;;;;;;6.50;3.10;;;;;;;0.84;67.68;97980.74;108114;1270;45003;-74
2022/03/27 03:48:29;;;;;;;7.20;3.60;;;;;;;0.78;67.73;97981.11;107979;1271;40188;-73
2022/03/27 03:50:59;;;;;;;5.70;3.50;;;;;;;0.74;67.99;97977.45;108121;1270;39316;-74
2022/03/27 03:53:30;;;;;;;6.20;2.80;;;;;;;0.74;68.11;97978.02;108012;1270;43479;-74
2022/03/27 03:56:01;;;;;;;8.20;3.50;;;;;;;0.65;68.21;97982.99;108079;1270;38474;-73
2022/03/27 03:58:32;;;;;;;7.20;2.90;;;;;;;0.63;68.15;97984.08;108100;1271;26711;-74
2022/03/27 04:01:03;;;;;;;8.90;3.00;;;;;;;0.65;68.01;97987.80;108084;1270;42123;-74
2022/03/27 04:03:34;;;;;;;4.90;2.60;;;;;;;0.66;68.00;97990.06;108111;1271;33864;-74
2022/03/27 04:06:06;;;;;;;8.00;2.50;;;;;;;0.62;67.68;97987.93;108119;1270;42771;-74
2022/03/27 04:08:37;;;;;;;7.10;2.70;;;;;;;0.55;67.87;97991.35;108226;1270;41260;-74
2022/03/27 04:11:08;;;;;;;6.00;2.50;;;;;;;0.46;68.07;97996.55;108104;1271;40373;-74
2022/03/27 04:13:38;;;;;;;7.80;2.90;;;;;;;0.43;68.24;97994.01;107972;1271;30970;-74
2022/03/27 04:16:09;;;;;;;6.50;2.30;;;;;;;0.53;68.21;98002.70;108064;1270;29558;-74
2022/03/27 04:18:40;;;;;;;6.00;2.80;;;;;;;0.40;68.31;98005.25;108040;1271;47374;-74
2022/03/27 04:21:11;;;;;;;4.80;2.20;;;;;;;0.45;68.25;98006.77;108050;1271;31635;-74
2022/03/27 04:23:43;;;;;;;6.00;2.10;;;;;;;0.44;68.15;98010.34;107998;1271;35144;-74
2022/03/27 04:26:14;;;;;;;5.60;2.80;;;;;;;0.28;68.83;98015.06;107978;1271;43189;-74
2022/03/27 04:28:45;;;;;;;9.50;2.70;;;;;;;0.03;69.80;98018.53;108015;1271;33798;-74
2022/03/27 04:31:18;;;;;;;5.00;2.60;;;;;;;-0.18;70.33;98029.02;107987;1271;31198;-75
2022/03/27 04:33:49;;;;;;;8.20;2.90;;;;;;;-0.27;70.84;98029.92;108045;1271;32712;-74
2022/03/27 04:36:19;;;;;;;6.10;2.80;;;;;;;-0.27;71.03;98034.13;108031;1271;33264;-74
2022/03/27 04:38:50;;;;;;;7.50;2.70;;;;;;;-0.22;70.92;98034.56;108030;1271;31819;-74
2022/03/27 04:41:21;;;;;;;5.30;3.20;;;;;;;0.04;71.23;98033.88;108026;1270;32150;-74
2022/03/27 04:43:52;;;;;;;7.80;2.60;;;;;;;0.30;70.99;98034.15;107938;1271;44130;-75
2022/03/27 04:46:23;;;;;;;7.80;2.90;;;;;;;0.27;70.74;98037.89;107946;1271;42678;-74
2022/03/27 04:48:54;;;;;;;5.10;2.50;;;;;;;0.29;70.80;98040.61;107982;1269;36038;-74
2022/03/27 04:51:25;;;;;;;5.80;2.50;;;;;;;0.36;70.87;98038.85;108001;1271;44388;-74
2022/03/27 04:53:56;;;;;;;4.60;2.50;;;;;;;0.41;70.64;98039.61;107965;1271;35005;-75
2022/03/27 04:56:26;;;;;;;6.10;2.30;;;;;;;0.54;70.78;98043.34;108007;1270;37086;-75
2022/03/27 04:58:57;;;;;;;3.60;2.00;;;;;;;0.81;70.59;98044.86;107949;1271;39100;-75
2022/03/27 05:01:28;;;;;;;4.90;1.90;;;;;;;1.20;70.47;98053.20;107973;1271;44095;-75
2022/03/27 05:03:59;;;;;;;4.70;2.00;;;;;;;1.79;69.94;98046.59;108023;1271;36543;-75
2022/03/27 05:06:30;;;;;;;4.60;2.10;;;;;;;2.48;69.03;98043.64;107947;1271;56504;-75
2022/03/27 05:09:02;;;;;;;3.80;2.20;;;;;;;3.27;68.75;98043.69;108019;1271;30548;-75
2022/03/27 05:11:32;;;;;;;5.30;2.70;;;;;;;4.31;68.01;98040.84;107874;1273;71458;-75
2022/03/27 05:14:01;;;;;;;;;;;;;;;4.94;66.01;98039.05;108067;1270;45202;-75
2022/03/27 05:16:32;;;;;;;8.20;3.40;;;;;;;4.97;64.48;98042.16;108032;1271;32239;-75
2022/03/27 05:19:04;;;;;;;5.50;2.70;;;;;;;4.90;63.77;98044.49;107993;1271;36995;-75
2022/03/27 05:21:35;;;;;;;5.20;2.50;;;;;;;4.89;63.58;98036.11;108066;1271;60164;-75
2022/03/27 05:24:08;;;;;;;5.60;2.10;;;;;;;5.13;63.46;98041.85;108033;1270;41183;-75
2022/03/27 05:26:39;;;;;;;4.60;2.10;;;;;;;5.52;62.76;98041.43;108022;1270;32550;-75
2022/03/27 05:29:10;;;;;;;4.60;2.50;;;;;;;6.04;62.65;98039.08;107894;1272;45083;-75
2022/03/27 05:31:41;;;;;;;6.20;2.90;;;;;;;6.86;62.78;98043.13;107949;1271;32917;-75
2022/03/27 05:34:12;;;;;;;4.40;2.60;;;;;;;7.81;61.77;98045.20;108043;1271;44532;-75
2022/03/27 05:36:43;;;;;;;6.50;2.80;;;;;;;8.47;60.40;98049.86;107996;1271;36255;-75
2022/03/27 05:39:13;;;;;;;5.30;2.20;;;;;;;8.98;58.50;98053.21;107999;1270;36545;-75
2022/03/27 05:41:44;;;;;;;3.30;2.10;;;;;;;8.94;56.70;98054.37;107965;1270;60062;-75
2022/03/27 05:44:15;;;;;;;3.30;2.00;;;;;;;8.93;55.97;98056.67;107949;1271;45290;-75
2022/03/27 05:46:46;;;;;;;5.20;2.70;;;;;;;9.28;55.55;98052.20;107978;1270;35297;-75
2022/03/27 05:49:17;;;;;;;4.40;2.10;;;;;;;9.62;54.44;98060.12;107987;1271;34933;-74
2022/03/27 05:51:48;;;;;;;5.00;2.50;;;;;;;9.97;53.79;98062.56;107998;1271;33539;-75
2022/03/27 05:54:19;;;;;;;7.00;2.90;;;;;;;10.35;52.81;98066.00;107930;1271;121501;-74
2022/03/27 05:56:50;;;;;;;5.90;2.90;;;;;;;10.90;52.62;98069.15;108012;1271;68284;-74
2022/03/27 05:59:21;;;;;;;7.30;3.00;;;;;;;12.12;52.44;98070.00;108006;1269;34964;-74
2022/03/27 06:01:52;;;;;;;5.60;3.10;;;;;;;13.48;52.09;98065.60;108013;1271;29675;-74
2022/03/27 06:04:23;;;;;;;7.70;3.60;;;;;;;14.62;50.86;98065.92;107974;1270;81112;-74
2022/03/27 06:06:56;;;;;;;6.70;3.60;;;;;;;15.34;49.11;98064.27;108021;1271;39796;-74
2022/03/27 06:09:27;;;;;;;9.00;3.40;;;;;;;16.03;47.58;98067.02;107989;1270;68026;-74
2022/03/27 06:11:58;;;;;;;7.10;3.40;;;;;;;16.53;46.27;98068.15;107978;1270;61822;-74
2022/03/27 06:14:29;;;;;;;5.50;3.00;;;;;;;16.61;44.90;98076.87;108037;1270;47626;-74
2022/03/27 06:17:01;;;;;;;5.50;2.90;;;;;;;16.72;43.12;98076.38;107976;1271;44944;-74
2022/03/27 06:19:32;;;;;;;7.50;2.90;;;;;;;16.96;42.48;98081.92;107928;1270;96357;-74
2022/03/27 06:22:03;;;;;;;4.80;2.20;;;;;;;17.62;41.63;98080.44;108051;1270;40462;-74
2022/03/27 06:24:34;;;;;;;4.60;2.50;;;;;;;17.86;39.51;98081.02;108041;1270;37837;-74
2022/03/27 06:27:06;;;;;;;4.00;1.80;;;;;;;18.14;39.02;98077.78;107962;1271;29967;-74
2022/03/27 06:29:37;;;;;;;4.70;2.00;;;;;;;17.88;34.82;98085.52;107973;1270;75000;-74
2022/03/27 06:32:09;;;;;;;3.40;1.70;;;;;;;17.09;34.41;98089.95;108027;1271;87395;-73
2022/03/27 06:34:41;;;;;;;4.00;1.70;;;;;;;16.72;33.74;98094.30;107987;1271;29323;-74
2022/03/27 06:37:12;;;;;;;2.80;1.60;;;;;;;16.84;34.03;98093.77;108001;1270;47607;-74
2022/03/27 06:39:43;;;;;;;4.00;1.10;;;;;;;16.80;31.53;98098.73;107983;1270;86140;-74
2022/03/27 06:42:14;;;;;;;4.40;1.60;;;;;;;16.45;30.67;98098.57;108017;1270;41601;-74
2022/03/27 06:44:45;;;;;;;2.30;1.40;;;;;;;15.92;29.51;98093.13;108047;1270;42586;-74
2022/03/27 06:47:16;;;;;;;3.10;1.40;;;;;;;15.82;30.14;98103.67;108021;1270;40087;-74
2022/03/27 06:49:48;;;;;;;2.30;1.20;;;;;;;15.87;28.74;98103.16;107888;1270;111244;-74
2022/03/27 06:52:21;;;;;;;3.60;1.80;;;;;;;15.62;26.96;98101.07;107984;1270;66240;-74
2022/03/27 06:54:52;;;;;;;2.40;1.20;;;;;;;14.91;26.68;98098.68;108022;1271;36693;-74
2022/03/27 06:57:24;;;;;;;1.80;1.10;;;;;;;15.02;27.52;98099.52;108025;1271;44158;-73
2022/03/27 07:05:35;;;;;;;1.10;0.80;;;;;;;14.79;25.46;98104.20;107998;1270;60476;-73
2022/03/27 07:08:09;;;;;;;2.10;1.00;;;;;;;15.03;26.30;98106.56;108125;1270;62656;-73
2022/03/27 07:10:41;;;;;;;3.50;1.30;;;;;;;15.90;26.41;98107.56;107980;1270;45233;-75
2022/03/27 07:13:15;;;;;;;3.10;1.50;;;;;;;16.00;24.36;98108.87;108034;1270;33639;-74
2022/03/27 07:15:49;;;;;;;1.60;1.00;;;;;;;15.71;24.60;98114.27;107956;1270;64041;-74
2022/03/27 07:18:22;;;;;;;2.80;1.10;;;;;;;15.43;23.25;98114.07;108079;1270;29257;-73
2022/03/27 07:20:53;;;;;;;2.10;1.10;;;;;;;14.84;24.63;98122.25;108026;1270;38843;-74
2022/03/27 07:23:24;;;;;;;4.10;1.20;;;;;;;15.71;25.86;98122.24;108021;1270;32124;-74
2022/03/27 07:25:56;;;;;;;2.20;1.20;;;;;;;16.73;24.02;98127.77;108028;1270;32826;-74
2022/03/27 07:28:30;;;;;;;1.40;1.10;;;;;;;16.58;24.10;98127.27;108035;1270;43339;-74
2022/03/27 07:31:02;;;;;;;2.20;1.10;;;;;;;17.15;24.46;98123.39;107987;1270;42362;-74
2022/03/27 07:33:33;;;;;;;2.50;1.30;;;;;;;17.87;23.14;98121.04;107997;1270;32343;-73
2022/03/27 07:36:07;;;;;;;2.60;1.20;;;;;;;17.40;22.11;98127.89;107936;1270;50786;-74
2022/03/27 07:38:38;;;;;;;2.30;1.20;;;;;;;17.66;23.26;98126.84;108047;1273;28493;-74
2022/03/27 07:41:10;;;;;;;2.90;1.30;;;;;;;18.79;23.81;98127.64;108036;1270;42460;-74
2022/03/27 07:43:42;;;;;;;3.00;1.50;;;;;;;19.57;22.61;98133.41;108078;1270;44392;-74
2022/03/27 07:46:13;;;;;;;2.40;1.50;;;;;;;20.01;23.56;98133.44;107999;1270;42634;-73
2022/03/27 07:48:44;;;;;;;1.80;1.10;;;;;;;19.92;20.95;98140.30;108020;1270;43843;-74
2022/03/27 07:51:16;;;;;;;2.00;1.10;;;;;;;19.43;21.19;98141.48;108080;1270;41246;-74
2022/03/27 07:53:47;;;;;;;3.00;0.80;;;;;;;19.66;20.46;98148.70;108046;1270;30698;-73
2022/03/27 07:56:18;;;;;;;2.60;0.80;;;;;;;19.64;20.39;98153.95;108068;1270;34520;-74
2022/03/27 07:58:52;;;;;;;3.00;1.30;;;;;;;20.25;20.63;98155.29;108073;1271;28035;-74
2022/03/27 08:01:23;;;;;;;3.10;1.40;;;;;;;19.50;17.32;98156.27;108130;1270;43685;-74
2022/03/27 08:03:56;;;;;;;1.80;1.10;;;;;;;17.89;18.50;98161.60;107899;1273;44569;-74
2022/03/27 08:06:29;;;;;;;1.90;0.90;;;;;;;17.71;19.20;98170.09;108020;1270;42245;-74
2022/03/27 08:09:00;;;;;;;2.50;1.30;;;;;;;17.01;18.88;98170.60;108005;1270;42418;-73
2022/03/27 08:11:32;;;;;;;2.10;1.10;;;;;;;16.75;19.90;98166.65;108046;1270;44341;-72
2022/03/27 08:14:02;;;;;;;2.20;1.10;;;;;;;17.54;20.77;98163.73;108010;1270;40780;-73
2022/03/27 08:16:34;;;;;;;1.90;1.40;;;;;;;18.48;19.54;98158.09;108066;1270;29738;-74
2022/03/27 08:19:05;;;;;;;1.90;1.30;;;;;;;17.58;18.78;98161.27;108063;1270;28972;-73
2022/03/27 08:21:37;;;;;;;3.50;1.40;;;;;;;17.11;19.27;98164.52;108075;1270;45307;-74
2022/03/27 08:24:09;;;;;;;2.70;1.90;;;;;;;16.69;19.83;98163.73;108104;1270;39824;-73
2022/03/27 08:27:00;;;;;;;3.40;1.30;;;;;;;16.89;19.70;98163.80;108061;1270;33481;-74
2022/03/27 08:29:33;;;;;;;3.40;1.40;;;;;;;17.92;19.62;98158.05;108030;1270;41944;-73
2022/03/27 08:32:08;;;;;;;2.10;1.80;;;;;;;18.32;20.72;98151.27;107999;1273;41779;-73
2022/03/27 08:34:41;;;;;;;2.80;1.60;;;;;;;18.70;17.71;98155.56;108017;1270;33048;-74
2022/03/27 08:37:16;;;;;;;1.80;1.40;;;;;;;17.43;18.67;98154.66;108016;1271;30274;-73
2022/03/27 08:39:47;;;;;;;1.90;1.70;;;;;;;17.82;20.48;98149.88;108092;1270;32303;-73
2022/03/27 08:42:20;;;;;;;2.50;0.80;;;;;;;19.17;20.68;98148.83;108012;1270;39251;-73
2022/03/27 08:44:51;;;;;;;2.10;0.90;;;;;;;20.51;20.79;98146.60;107920;1271;52643;-73
2022/03/27 08:47:25;;;;;;;3.40;0.70;;;;;;;21.38;19.67;98142.89;108012;1270;39135;-74
2022/03/27 08:50:14;;;;;;;1.30;0.80;;;;;;;20.78;17.72;98141.18;108039;1269;43271;-73
2022/03/27 08:52:55;;;;;;;1.60;0.90;;;;;;;20.75;19.43;98141.05;107984;1270;37049;-73
2022/03/27 08:55:46;;;;;;;3.10;0.80;;;;;;;21.47;19.80;98137.93;108012;1270;32059;-73
2022/03/27 08:58:19;;;;;;;1.40;0.70;;;;;;;21.87;17.56;98134.39;107992;1270;57255;-73
2022/03/27 09:00:50;;;;;;;3.00;0.90;;;;;;;19.96;16.74;98125.64;108016;1270;34591;-73
2022/03/27 09:03:23;;;;;;;2.60;0.90;;;;;;;19.22;18.88;98119.55;107986;1270;41063;-73
2022/03/27 09:05:54;;;;;;;1.20;0.80;;;;;;;19.91;19.49;98114.22;107992;1270;41004;-73
2022/03/27 09:08:25;;;;;;;1.80;0.90;;;;;;;19.59;18.34;98114.81;108009;1270;40127;-73
2022/03/27 09:11:01;;;;;;;2.80;1.10;;;;;;;18.90;19.19;98117.27;108060;1270;36020;-73
2022/03/27 09:13:33;;;;;;;2.20;1.00;;;;;;;19.10;20.60;98115.35;107975;1270;48655;-73
2022/03/27 09:16:07;;;;;;;2.90;1.40;;;;;;;19.31;20.10;98113.69;108054;1270;43014;-73
2022/03/27 09:18:47;;;;;;;2.20;0.90;;;;;;;18.47;20.45;98113.47;108064;1270;45237;-73
2022/03/27 09:21:19;;;;;;;1.50;1.00;;;;;;;17.66;20.78;98118.41;108167;1270;31536;-73
2022/03/27 09:23:56;;;;;;;2.70;1.10;;;;;;;16.29;20.05;98117.16;108011;1270;41672;-73
2022/03/27 09:26:29;;;;;;;2.00;1.10;;;;;;;14.90;21.72;98115.02;108056;1270;43557;-73
2022/03/27 09:29:10;;;;;;;2.70;1.20;;;;;;;14.11;22.41;98111.92;108072;1269;38786;-73
2022/03/27 09:31:42;;;;;;;2.20;0.80;;;;;;;13.58;23.12;98107.98;108144;1270;29839;-74
2022/03/27 09:34:13;;;;;;;2.20;1.00;;;;;;;13.25;23.58;98101.95;108013;1270;61425;-73
2022/03/27 09:36:46;;;;;;;4.20;1.00;;;;;;;12.70;23.25;98102.61;108091;1270;30336;-73
2022/03/27 09:39:19;;;;;;;3.20;1.00;;;;;;;11.93;24.20;98107.05;108076;1270;42684;-73
2022/03/27 09:41:53;;;;;;;2.10;0.90;;;;;;;11.44;24.56;98104.96;108001;1270;42969;-73
2022/03/27 09:44:32;;;;;;;2.10;1.20;;;;;;;11.40;25.00;98106.09;108015;1270;46760;-73
2022/03/27 09:47:05;;;;;;;4.10;1.30;;;;;;;10.87;24.73;98107.15;108081;1270;46181;-73
2022/03/27 09:49:47;;;;;;;6.20;1.40;;;;;;;10.47;25.46;98111.69;108162;1270;41435;-73
2022/03/27 09:52:20;;;;;;;4.30;1.40;;;;;;;10.54;26.28;98114.57;108073;1270;40331;-74
2022/03/27 09:54:56;;;;;;;2.80;1.10;;;;;;;10.31;25.57;98116.77;108102;1270;30065;-73
2022/03/27 09:57:29;;;;;;;5.00;1.50;;;;;;;10.07;26.81;98117.38;108142;1270;46771;-74
2022/03/27 10:00:13;;;;;;;2.60;1.10;;;;;;;10.12;26.07;98125.02;108123;1270;27357;-73
2022/03/27 10:02:45;;;;;;;4.00;1.10;;;;;;;9.89;25.84;98126.16;107925;1272;35043;-74
2022/03/27 10:05:17;;;;;;;2.20;1.10;;;;;;;9.42;25.35;98124.22;108089;1270;32186;-73
2022/03/27 10:07:52;;;;;;;4.70;1.10;;;;;;;8.99;26.32;98120.12;108099;1269;29843;-73
2022/03/27 10:10:25;;;;;;;2.50;1.10;;;;;;;9.13;27.73;98110.15;108112;1270;29053;-73
2022/03/27 10:12:58;;;;;;;3.90;0.90;;;;;;;9.72;27.05;98107.29;108005;1271;29641;-73
2022/03/27 10:15:30;;;;;;;2.80;0.90;;;;;;;9.97;26.23;98111.42;107996;1270;32605;-73
2022/03/27 10:18:10;;;;;;;4.10;1.20;;;;;;;9.75;26.41;98114.19;108013;1270;41789;-73
2022/03/27 10:20:41;;;;;;;1.50;1.30;;;;;;;10.10;26.76;98115.00;108007;1270;45135;-74
2022/03/27 10:23:19;;;;;;;3.00;1.20;;;;;;;10.13;25.47;98112.45;108053;1270;37567;-73
2022/03/27 10:25:54;;;;;;;4.30;1.30;;;;;;;9.77;26.25;98111.63;107940;1271;33902;-73
2022/03/27 10:28:26;;;;;;;2.70;1.10;;;;;;;9.74;27.33;98109.27;108071;1270;31766;-73
2022/03/27 10:30:57;;;;;;;4.50;1.30;;;;;;;10.10;27.45;98104.67;108081;1270;44069;-73
2022/03/27 10:33:30;;;;;;;3.00;0.80;;;;;;;10.47;27.16;98098.42;108081;1269;32488;-74
2022/03/27 10:36:10;;;;;;;4.00;1.30;;;;;;;10.34;25.71;98105.67;108077;1270;42661;-74
2022/03/27 10:38:44;;;;;;;;;;;;;;;9.84;26.12;98096.07;108036;1270;46679;-74
2022/03/27 10:41:20;;;;;;;4.60;1.40;;;;;;;9.88;26.44;98095.36;108085;1270;33375;-74
2022/03/27 10:43:57;;;;;;;2.60;1.20;;;;;;;9.99;27.45;98091.59;108038;1270;42987;-74
2022/03/27 10:46:29;;;;;;;3.80;1.30;;;;;;;10.27;26.81;98092.10;108011;1271;39932;-73
2022/03/27 10:49:14;;;;;;;3.80;1.20;;;;;;;10.34;26.48;98088.36;107942;1270;45619;-73
2022/03/27 10:51:47;;;;;;;1.70;0.90;;;;;;;9.94;25.91;98090.59;108025;1270;46570;-74
2022/03/27 10:54:20;;;;;;;3.80;1.30;;;;;;;9.55;26.81;98092.52;108038;1270;41207;-73
2022/03/27 10:56:54;;;;;;;2.70;0.80;;;;;;;9.84;27.16;98088.04;108009;1270;40931;-74
2022/03/27 10:59:27;;;;;;;3.50;1.20;;;;;;;9.61;26.63;98080.45;108044;1270;41981;-73
2022/03/27 11:01:59;;;;;;;2.60;0.90;;;;;;;9.72;27.36;98080.71;108061;1270;32691;-73
2022/03/27 11:04:41;;;;;;;2.80;0.90;;;;;;;9.95;26.75;98072.23;108021;1270;39812;-73
2022/03/27 11:07:24;;;;;;;1.80;1.10;;;;;;;9.95;26.49;98066.28;107936;1271;29995;-74
2022/03/27 11:09:55;;;;;;;3.00;1.50;;;;;;;9.83;26.91;98058.14;108051;1270;34924;-74
2022/03/27 11:12:32;;;;;;;4.00;1.30;;;;;;;9.98;27.12;98059.05;108007;1270;44729;-74
2022/03/27 11:15:06;;;;;;;2.10;1.20;;;;;;;10.23;27.03;98059.22;108054;1270;43388;-73
2022/03/27 11:17:52;;;;;;;1.60;1.00;;;;;;;10.08;26.20;98055.92;108093;1270;45569;-74
2022/03/27 11:20:58;;;;;;;6.10;1.40;;;;;;;9.57;26.25;98049.38;108033;1270;44760;-74
2022/03/27 11:23:36;;;;;;;3.50;1.00;;;;;;;9.40;27.88;98047.54;107999;1270;34160;-73
2022/03/27 11:26:30;;;;;;;3.80;1.40;;;;;;;9.83;27.69;98042.40;108051;1270;46226;-74
2022/03/27 11:29:04;;;;;;;3.10;1.10;;;;;;;10.17;27.47;98033.09;108027;1270;33689;-74
2022/03/27 11:31:37;;;;;;;2.00;0.80;;;;;;;10.09;26.54;98025.41;107971;1273;41477;-73
2022/03/27 11:34:26;;;;;;;4.70;1.20;;;;;;;9.87;26.78;98027.60;108156;1270;35031;-74
2022/03/27 11:37:22;;;;;;;2.10;1.10;;;;;;;10.07;27.29;98020.98;107916;1271;36299;-74
2022/03/27 11:39:54;;;;;;;4.10;1.10;;;;;;;10.15;27.79;98022.61;108094;1270;30976;-74
2022/03/27 11:42:36;;;;;;;5.10;1.40;;;;;;;10.39;27.77;98022.01;108074;1270;41759;-74
2022/03/27 11:45:24;;;;;;;4.90;1.20;;;;;;;10.72;27.67;98016.23;108107;1270;30950;-74
2022/03/27 11:47:57;;;;;;;2.90;0.90;;;;;;;10.69;26.86;98016.44;108030;1270;31640;-74
2022/03/27 11:50:31;;;;;;;2.70;1.10;;;;;;;10.43;27.03;98014.59;108009;1270;49030;-74
2022/03/27 11:53:04;;;;;;;3.40;1.40;;;;;;;10.33;27.05;98009.77;108099;1270;43536;-74
2022/03/27 11:55:37;;;;;;;2.20;0.90;;;;;;;10.45;27.19;98005.40;108049;1270;42789;-75
2022/03/27 11:58:11;;;;;;;2.30;0.90;;;;;;;10.37;26.49;98005.11;107974;1271;38845;-75
2022/03/27 12:00:45;;;;;;;5.20;1.50;;;;;;;10.20;26.60;98003.77;108132;1270;35642;-75
2022/03/27 12:03:21;;;;;;;3.30;1.20;;;;;;;10.01;25.94;98005.30;107891;1272;41052;-74
2022/03/27 12:05:54;;;;;;;2.30;1.00;;;;;;;9.94;26.75;97997.14;108032;1270;44739;-75